sensor_id;sensor_type;location;lat;lon;timestamp;P1;durP1;ratioP1;P2;durP2;ratioP2
74223;SDS011;62585;49.706;18.216;2023-05-07T00:01:59;5.13;;;2.70;;
74223;SDS011;62585;49.706;18.216;2023-05-07T00:04:24;6.20;;;3.38;;
74223;SDS011;62585;49.706;18.216;2023-05-07T00:06:50;8.10;;;3.85;;
74223;SDS011;62585;49.706;18.216;2023-05-07T00:09:16;8.25;;;3.85;;
74223;SDS011;62585;49.706;18.216;2023-05-07T00:11:42;6.50;;;2.35;;
74223;SDS011;62585;49.706;18.216;2023-05-07T00:14:07;7.05;;;3.22;;
74223;SDS011;62585;49.706;18.216;2023-05-07T00:16:33;8.68;;;4.75;;
74223;SDS011;62585;49.706;18.216;2023-05-07T00:18:59;7.43;;;4.07;;
74223;SDS011;62585;49.706;18.216;2023-05-07T00:21:25;8.57;;;4.32;;
74223;SDS011;62585;49.706;18.216;2023-05-07T00:23:52;4.90;;;3.03;;
74223;SDS011;62585;49.706;18.216;2023-05-07T00:26:18;5.78;;;3.20;;
74223;SDS011;62585;49.706;18.216;2023-05-07T00:28:44;3.03;;;2.08;;
74223;SDS011;62585;49.706;18.216;2023-05-07T00:31:10;5.18;;;3.38;;
74223;SDS011;62585;49.706;18.216;2023-05-07T00:33:35;5.80;;;3.50;;
74223;SDS011;62585;49.706;18.216;2023-05-07T00:36:03;6.38;;;3.65;;
74223;SDS011;62585;49.706;18.216;2023-05-07T00:38:29;5.32;;;2.70;;
74223;SDS011;62585;49.706;18.216;2023-05-07T00:40:55;4.93;;;3.83;;
74223;SDS011;62585;49.706;18.216;2023-05-07T00:43:20;7.85;;;3.85;;
74223;SDS011;62585;49.706;18.216;2023-05-07T00:45:46;5.22;;;2.88;;
74223;SDS011;62585;49.706;18.216;2023-05-07T00:48:12;1.88;;;1.55;;
74223;SDS011;62585;49.706;18.216;2023-05-07T00:50:38;2.85;;;1.08;;
74223;SDS011;62585;49.706;18.216;2023-05-07T00:53:04;2.90;;;2.00;;
74223;SDS011;62585;49.706;18.216;2023-05-07T00:55:30;7.05;;;4.55;;
74223;SDS011;62585;49.706;18.216;2023-05-07T00:57:56;5.43;;;2.50;;
74223;SDS011;62585;49.706;18.216;2023-05-07T01:00:22;3.08;;;2.33;;
74223;SDS011;62585;49.706;18.216;2023-05-07T01:02:48;5.18;;;2.67;;
74223;SDS011;62585;49.706;18.216;2023-05-07T01:05:14;6.35;;;3.25;;
74223;SDS011;62585;49.706;18.216;2023-05-07T01:07:41;6.80;;;3.50;;
74223;SDS011;62585;49.706;18.216;2023-05-07T01:10:08;6.95;;;4.55;;
74223;SDS011;62585;49.706;18.216;2023-05-07T01:12:35;7.95;;;3.55;;
74223;SDS011;62585;49.706;18.216;2023-05-07T01:15:03;4.60;;;1.75;;
74223;SDS011;62585;49.706;18.216;2023-05-07T01:17:38;5.78;;;3.10;;
74223;SDS011;62585;49.706;18.216;2023-05-07T01:20:06;6.28;;;3.10;;
74223;SDS011;62585;49.706;18.216;2023-05-07T01:22:36;7.93;;;4.18;;
74223;SDS011;62585;49.706;18.216;2023-05-07T01:25:04;6.45;;;3.83;;
74223;SDS011;62585;49.706;18.216;2023-05-07T01:27:30;7.15;;;4.60;;
74223;SDS011;62585;49.706;18.216;2023-05-07T01:29:56;3.90;;;3.58;;
74223;SDS011;62585;49.706;18.216;2023-05-07T01:32:24;8.07;;;3.63;;
74223;SDS011;62585;49.706;18.216;2023-05-07T01:34:54;9.63;;;3.88;;
74223;SDS011;62585;49.706;18.216;2023-05-07T01:37:21;7.97;;;4.75;;
74223;SDS011;62585;49.706;18.216;2023-05-07T01:39:47;5.00;;;2.92;;
74223;SDS011;62585;49.706;18.216;2023-05-07T01:42:13;8.40;;;3.65;;
74223;SDS011;62585;49.706;18.216;2023-05-07T01:44:39;5.82;;;4.10;;
74223;SDS011;62585;49.706;18.216;2023-05-07T01:47:05;7.00;;;3.85;;
74223;SDS011;62585;49.706;18.216;2023-05-07T01:49:31;8.13;;;3.90;;
74223;SDS011;62585;49.706;18.216;2023-05-07T01:51:57;5.30;;;4.03;;
74223;SDS011;62585;49.706;18.216;2023-05-07T01:54:26;8.10;;;3.65;;
74223;SDS011;62585;49.706;18.216;2023-05-07T01:56:56;4.47;;;3.10;;
74223;SDS011;62585;49.706;18.216;2023-05-07T01:59:22;4.80;;;3.35;;
74223;SDS011;62585;49.706;18.216;2023-05-07T02:01:48;7.93;;;3.97;;
74223;SDS011;62585;49.706;18.216;2023-05-07T02:04:14;6.82;;;3.90;;
74223;SDS011;62585;49.706;18.216;2023-05-07T02:06:39;6.40;;;4.10;;
74223;SDS011;62585;49.706;18.216;2023-05-07T02:09:05;6.22;;;3.78;;
74223;SDS011;62585;49.706;18.216;2023-05-07T02:11:31;5.57;;;3.60;;
74223;SDS011;62585;49.706;18.216;2023-05-07T02:13:57;5.72;;;3.13;;
74223;SDS011;62585;49.706;18.216;2023-05-07T02:16:22;4.28;;;3.63;;
74223;SDS011;62585;49.706;18.216;2023-05-07T02:18:49;7.22;;;3.70;;
74223;SDS011;62585;49.706;18.216;2023-05-07T02:21:14;8.95;;;4.18;;
74223;SDS011;62585;49.706;18.216;2023-05-07T02:23:40;11.07;;;4.63;;
74223;SDS011;62585;49.706;18.216;2023-05-07T02:26:06;6.85;;;3.75;;
74223;SDS011;62585;49.706;18.216;2023-05-07T02:28:32;10.77;;;3.83;;
74223;SDS011;62585;49.706;18.216;2023-05-07T02:31:02;9.85;;;3.90;;
74223;SDS011;62585;49.706;18.216;2023-05-07T02:33:28;5.10;;;3.47;;
74223;SDS011;62585;49.706;18.216;2023-05-07T02:35:54;8.63;;;4.28;;
74223;SDS011;62585;49.706;18.216;2023-05-07T02:38:20;8.48;;;3.90;;
74223;SDS011;62585;49.706;18.216;2023-05-07T02:40:48;4.40;;;3.13;;
74223;SDS011;62585;49.706;18.216;2023-05-07T02:43:14;5.80;;;4.60;;
74223;SDS011;62585;49.706;18.216;2023-05-07T02:45:40;8.00;;;4.60;;
74223;SDS011;62585;49.706;18.216;2023-05-07T02:48:06;5.53;;;3.58;;
74223;SDS011;62585;49.706;18.216;2023-05-07T02:50:32;7.60;;;4.22;;
74223;SDS011;62585;49.706;18.216;2023-05-07T02:52:58;8.60;;;3.67;;
74223;SDS011;62585;49.706;18.216;2023-05-07T02:55:23;5.88;;;3.65;;
74223;SDS011;62585;49.706;18.216;2023-05-07T02:57:49;10.45;;;4.47;;
74223;SDS011;62585;49.706;18.216;2023-05-07T03:00:16;6.93;;;3.55;;
74223;SDS011;62585;49.706;18.216;2023-05-07T03:02:43;7.13;;;3.40;;
74223;SDS011;62585;49.706;18.216;2023-05-07T03:05:10;8.50;;;3.95;;
74223;SDS011;62585;49.706;18.216;2023-05-07T03:07:36;6.53;;;3.40;;
74223;SDS011;62585;49.706;18.216;2023-05-07T03:10:02;0.55;;;0.50;;
74223;SDS011;62585;49.706;18.216;2023-05-07T03:12:28;5.60;;;2.38;;
74223;SDS011;62585;49.706;18.216;2023-05-07T03:14:54;5.10;;;3.17;;
74223;SDS011;62585;49.706;18.216;2023-05-07T03:17:20;5.90;;;3.67;;
74223;SDS011;62585;49.706;18.216;2023-05-07T03:19:45;3.35;;;2.25;;
74223;SDS011;62585;49.706;18.216;2023-05-07T03:22:11;5.10;;;2.22;;
74223;SDS011;62585;49.706;18.216;2023-05-07T03:24:37;8.18;;;4.28;;
74223;SDS011;62585;49.706;18.216;2023-05-07T03:27:03;4.05;;;3.28;;
74223;SDS011;62585;49.706;18.216;2023-05-07T03:29:28;8.32;;;3.20;;
74223;SDS011;62585;49.706;18.216;2023-05-07T03:31:55;6.40;;;3.97;;
74223;SDS011;62585;49.706;18.216;2023-05-07T03:34:20;5.63;;;2.58;;
74223;SDS011;62585;49.706;18.216;2023-05-07T03:36:48;7.28;;;4.35;;
74223;SDS011;62585;49.706;18.216;2023-05-07T03:39:14;6.13;;;3.53;;
74223;SDS011;62585;49.706;18.216;2023-05-07T03:41:40;7.00;;;4.43;;
74223;SDS011;62585;49.706;18.216;2023-05-07T03:44:05;5.45;;;3.42;;
74223;SDS011;62585;49.706;18.216;2023-05-07T03:46:31;6.35;;;3.58;;
74223;SDS011;62585;49.706;18.216;2023-05-07T03:48:58;6.53;;;3.53;;
74223;SDS011;62585;49.706;18.216;2023-05-07T03:51:24;5.35;;;3.40;;
74223;SDS011;62585;49.706;18.216;2023-05-07T03:53:50;4.10;;;1.80;;
74223;SDS011;62585;49.706;18.216;2023-05-07T03:56:18;6.53;;;3.65;;
74223;SDS011;62585;49.706;18.216;2023-05-07T03:58:44;5.35;;;3.67;;
74223;SDS011;62585;49.706;18.216;2023-05-07T04:01:11;6.10;;;4.03;;
74223;SDS011;62585;49.706;18.216;2023-05-07T04:03:37;5.28;;;2.85;;
74223;SDS011;62585;49.706;18.216;2023-05-07T04:06:03;5.05;;;2.88;;
74223;SDS011;62585;49.706;18.216;2023-05-07T04:08:28;3.45;;;1.77;;
74223;SDS011;62585;49.706;18.216;2023-05-07T04:10:57;5.53;;;3.28;;
74223;SDS011;62585;49.706;18.216;2023-05-07T04:13:24;7.57;;;3.83;;
74223;SDS011;62585;49.706;18.216;2023-05-07T04:15:50;3.80;;;2.50;;
74223;SDS011;62585;49.706;18.216;2023-05-07T04:18:17;3.67;;;2.40;;
74223;SDS011;62585;49.706;18.216;2023-05-07T04:20:43;7.55;;;3.20;;
74223;SDS011;62585;49.706;18.216;2023-05-07T04:23:08;5.10;;;2.78;;
74223;SDS011;62585;49.706;18.216;2023-05-07T04:25:34;11.15;;;3.38;;
74223;SDS011;62585;49.706;18.216;2023-05-07T04:28:00;3.47;;;2.42;;
74223;SDS011;62585;49.706;18.216;2023-05-07T04:30:26;10.18;;;3.17;;
74223;SDS011;62585;49.706;18.216;2023-05-07T04:32:51;3.75;;;2.22;;
74223;SDS011;62585;49.706;18.216;2023-05-07T04:35:18;3.83;;;2.85;;
74223;SDS011;62585;49.706;18.216;2023-05-07T04:37:44;5.18;;;3.05;;
74223;SDS011;62585;49.706;18.216;2023-05-07T04:40:10;4.53;;;2.83;;
74223;SDS011;62585;49.706;18.216;2023-05-07T04:42:36;6.90;;;3.95;;
74223;SDS011;62585;49.706;18.216;2023-05-07T04:45:02;3.25;;;1.85;;
74223;SDS011;62585;49.706;18.216;2023-05-07T04:47:28;5.82;;;2.83;;
74223;SDS011;62585;49.706;18.216;2023-05-07T04:49:54;5.90;;;2.88;;
74223;SDS011;62585;49.706;18.216;2023-05-07T04:52:19;5.13;;;2.17;;
74223;SDS011;62585;49.706;18.216;2023-05-07T04:54:45;5.45;;;2.78;;
74223;SDS011;62585;49.706;18.216;2023-05-07T04:57:11;4.07;;;2.88;;
74223;SDS011;62585;49.706;18.216;2023-05-07T04:59:37;6.85;;;3.35;;
74223;SDS011;62585;49.706;18.216;2023-05-07T05:02:02;6.72;;;3.72;;
74223;SDS011;62585;49.706;18.216;2023-05-07T05:04:29;7.40;;;3.08;;
74223;SDS011;62585;49.706;18.216;2023-05-07T05:06:55;0.90;;;0.90;;
74223;SDS011;62585;49.706;18.216;2023-05-07T05:09:21;3.58;;;2.47;;
74223;SDS011;62585;49.706;18.216;2023-05-07T05:11:47;2.65;;;2.33;;
74223;SDS011;62585;49.706;18.216;2023-05-07T05:14:13;3.22;;;2.05;;
74223;SDS011;62585;49.706;18.216;2023-05-07T05:16:38;7.25;;;3.22;;
74223;SDS011;62585;49.706;18.216;2023-05-07T05:19:04;4.00;;;2.53;;
74223;SDS011;62585;49.706;18.216;2023-05-07T05:21:30;9.25;;;3.60;;
74223;SDS011;62585;49.706;18.216;2023-05-07T05:23:57;3.53;;;1.98;;
74223;SDS011;62585;49.706;18.216;2023-05-07T05:26:23;5.90;;;3.85;;
74223;SDS011;62585;49.706;18.216;2023-05-07T05:28:49;4.95;;;3.15;;
74223;SDS011;62585;49.706;18.216;2023-05-07T05:31:16;4.97;;;2.70;;
74223;SDS011;62585;49.706;18.216;2023-05-07T05:33:42;5.57;;;3.08;;
74223;SDS011;62585;49.706;18.216;2023-05-07T05:36:11;6.68;;;2.60;;
74223;SDS011;62585;49.706;18.216;2023-05-07T05:38:38;5.88;;;3.10;;
74223;SDS011;62585;49.706;18.216;2023-05-07T05:41:04;6.32;;;3.50;;
74223;SDS011;62585;49.706;18.216;2023-05-07T05:43:30;6.70;;;2.58;;
74223;SDS011;62585;49.706;18.216;2023-05-07T05:45:56;5.90;;;4.15;;
74223;SDS011;62585;49.706;18.216;2023-05-07T05:48:23;9.77;;;3.05;;
74223;SDS011;62585;49.706;18.216;2023-05-07T05:50:48;5.95;;;2.45;;
74223;SDS011;62585;49.706;18.216;2023-05-07T05:53:15;1.20;;;1.08;;
74223;SDS011;62585;49.706;18.216;2023-05-07T05:55:41;2.00;;;1.80;;
74223;SDS011;62585;49.706;18.216;2023-05-07T05:58:07;1.58;;;1.15;;
74223;SDS011;62585;49.706;18.216;2023-05-07T06:00:32;9.27;;;3.17;;
74223;SDS011;62585;49.706;18.216;2023-05-07T06:02:58;3.47;;;2.17;;
74223;SDS011;62585;49.706;18.216;2023-05-07T06:05:24;5.82;;;3.85;;
74223;SDS011;62585;49.706;18.216;2023-05-07T06:07:50;4.95;;;3.17;;
74223;SDS011;62585;49.706;18.216;2023-05-07T06:10:15;9.13;;;3.65;;
74223;SDS011;62585;49.706;18.216;2023-05-07T06:12:41;3.30;;;2.72;;
74223;SDS011;62585;49.706;18.216;2023-05-07T06:15:07;10.15;;;3.20;;
74223;SDS011;62585;49.706;18.216;2023-05-07T06:17:33;7.90;;;3.15;;
74223;SDS011;62585;49.706;18.216;2023-05-07T06:19:59;3.33;;;2.20;;
74223;SDS011;62585;49.706;18.216;2023-05-07T06:22:25;2.85;;;2.45;;
74223;SDS011;62585;49.706;18.216;2023-05-07T06:24:51;4.40;;;2.58;;
74223;SDS011;62585;49.706;18.216;2023-05-07T06:27:16;1.38;;;0.73;;
74223;SDS011;62585;49.706;18.216;2023-05-07T06:29:42;2.33;;;1.88;;
74223;SDS011;62585;49.706;18.216;2023-05-07T06:32:09;3.00;;;1.67;;
74223;SDS011;62585;49.706;18.216;2023-05-07T06:34:38;2.13;;;1.13;;
74223;SDS011;62585;49.706;18.216;2023-05-07T06:37:05;5.03;;;3.42;;
74223;SDS011;62585;49.706;18.216;2023-05-07T06:39:31;6.93;;;3.92;;
74223;SDS011;62585;49.706;18.216;2023-05-07T06:41:58;9.05;;;2.92;;
74223;SDS011;62585;49.706;18.216;2023-05-07T06:44:24;5.00;;;2.88;;
74223;SDS011;62585;49.706;18.216;2023-05-07T06:46:50;4.35;;;2.65;;
74223;SDS011;62585;49.706;18.216;2023-05-07T06:49:15;6.10;;;3.10;;
74223;SDS011;62585;49.706;18.216;2023-05-07T06:51:41;7.75;;;4.43;;
74223;SDS011;62585;49.706;18.216;2023-05-07T06:54:09;7.40;;;3.00;;
74223;SDS011;62585;49.706;18.216;2023-05-07T06:56:36;4.38;;;2.58;;
74223;SDS011;62585;49.706;18.216;2023-05-07T06:59:02;4.85;;;2.70;;
74223;SDS011;62585;49.706;18.216;2023-05-07T07:01:28;5.47;;;2.47;;
74223;SDS011;62585;49.706;18.216;2023-05-07T07:03:54;7.50;;;3.97;;
74223;SDS011;62585;49.706;18.216;2023-05-07T07:06:20;4.78;;;2.78;;
74223;SDS011;62585;49.706;18.216;2023-05-07T07:08:46;8.18;;;3.90;;
74223;SDS011;62585;49.706;18.216;2023-05-07T07:11:12;6.30;;;3.33;;
74223;SDS011;62585;49.706;18.216;2023-05-07T07:13:37;5.28;;;3.33;;
74223;SDS011;62585;49.706;18.216;2023-05-07T07:16:03;4.25;;;2.25;;
74223;SDS011;62585;49.706;18.216;2023-05-07T07:18:29;5.53;;;3.40;;
74223;SDS011;62585;49.706;18.216;2023-05-07T07:20:55;3.38;;;2.05;;
74223;SDS011;62585;49.706;18.216;2023-05-07T07:23:21;4.88;;;2.35;;
74223;SDS011;62585;49.706;18.216;2023-05-07T07:25:46;5.55;;;2.72;;
74223;SDS011;62585;49.706;18.216;2023-05-07T07:28:12;6.40;;;3.33;;
74223;SDS011;62585;49.706;18.216;2023-05-07T07:30:38;5.38;;;2.80;;
74223;SDS011;62585;49.706;18.216;2023-05-07T07:33:04;7.93;;;4.18;;
74223;SDS011;62585;49.706;18.216;2023-05-07T07:35:33;4.57;;;2.47;;
74223;SDS011;62585;49.706;18.216;2023-05-07T07:37:59;1.45;;;1.00;;
74223;SDS011;62585;49.706;18.216;2023-05-07T07:40:25;6.75;;;3.97;;
74223;SDS011;62585;49.706;18.216;2023-05-07T07:42:51;4.63;;;1.95;;
74223;SDS011;62585;49.706;18.216;2023-05-07T07:45:18;14.07;;;3.50;;
74223;SDS011;62585;49.706;18.216;2023-05-07T07:47:43;2.88;;;1.85;;
74223;SDS011;62585;49.706;18.216;2023-05-07T07:50:09;0.10;;;0.10;;
74223;SDS011;62585;49.706;18.216;2023-05-07T07:52:35;0.00;;;0.00;;
74223;SDS011;62585;49.706;18.216;2023-05-07T07:55:01;0.55;;;0.55;;
74223;SDS011;62585;49.706;18.216;2023-05-07T07:57:27;0.85;;;0.85;;
74223;SDS011;62585;49.706;18.216;2023-05-07T07:59:52;0.00;;;0.00;;
74223;SDS011;62585;49.706;18.216;2023-05-07T08:02:18;1.00;;;0.90;;
74223;SDS011;62585;49.706;18.216;2023-05-07T08:04:44;0.00;;;0.00;;
74223;SDS011;62585;49.706;18.216;2023-05-07T08:07:10;0.00;;;0.00;;
74223;SDS011;62585;49.706;18.216;2023-05-07T08:09:39;0.00;;;0.00;;
74223;SDS011;62585;49.706;18.216;2023-05-07T08:12:08;0.30;;;0.30;;
74223;SDS011;62585;49.706;18.216;2023-05-07T08:14:34;0.00;;;0.00;;
74223;SDS011;62585;49.706;18.216;2023-05-07T08:19:27;0.45;;;0.30;;
74223;SDS011;62585;49.706;18.216;2023-05-07T08:21:52;0.28;;;0.28;;
74223;SDS011;62585;49.706;18.216;2023-05-07T08:24:18;0.00;;;0.00;;
74223;SDS011;62585;49.706;18.216;2023-05-07T08:26:45;0.52;;;0.52;;
74223;SDS011;62585;49.706;18.216;2023-05-07T08:29:11;0.00;;;0.00;;
74223;SDS011;62585;49.706;18.216;2023-05-07T08:31:36;0.00;;;0.00;;
74223;SDS011;62585;49.706;18.216;2023-05-07T08:34:04;0.00;;;0.00;;
74223;SDS011;62585;49.706;18.216;2023-05-07T08:36:30;0.00;;;0.00;;
74223;SDS011;62585;49.706;18.216;2023-05-07T08:38:56;0.00;;;0.00;;
74223;SDS011;62585;49.706;18.216;2023-05-07T08:41:22;0.03;;;0.03;;
74223;SDS011;62585;49.706;18.216;2023-05-07T08:43:48;0.30;;;0.30;;
74223;SDS011;62585;49.706;18.216;2023-05-07T08:46:19;0.93;;;0.73;;
74223;SDS011;62585;49.706;18.216;2023-05-07T08:48:49;0.00;;;0.00;;
74223;SDS011;62585;49.706;18.216;2023-05-07T08:51:17;1.02;;;0.30;;
74223;SDS011;62585;49.706;18.216;2023-05-07T08:53:44;0.00;;;0.00;;
74223;SDS011;62585;49.706;18.216;2023-05-07T08:56:10;0.00;;;0.00;;
74223;SDS011;62585;49.706;18.216;2023-05-07T08:58:37;5.47;;;1.65;;
74223;SDS011;62585;49.706;18.216;2023-05-07T09:01:03;0.00;;;0.00;;
74223;SDS011;62585;49.706;18.216;2023-05-07T09:03:33;0.00;;;0.00;;
74223;SDS011;62585;49.706;18.216;2023-05-07T09:05:58;0.10;;;0.10;;
74223;SDS011;62585;49.706;18.216;2023-05-07T09:08:25;0.00;;;0.00;;
74223;SDS011;62585;49.706;18.216;2023-05-07T09:13:18;0.10;;;0.10;;
74223;SDS011;62585;49.706;18.216;2023-05-07T09:15:44;0.00;;;0.00;;
74223;SDS011;62585;49.706;18.216;2023-05-07T09:18:10;1.55;;;0.98;;
74223;SDS011;62585;49.706;18.216;2023-05-07T09:20:36;0.00;;;0.00;;
74223;SDS011;62585;49.706;18.216;2023-05-07T09:23:03;0.00;;;0.00;;
74223;SDS011;62585;49.706;18.216;2023-05-07T09:25:29;0.75;;;0.75;;
74223;SDS011;62585;49.706;18.216;2023-05-07T09:27:59;0.00;;;0.00;;
74223;SDS011;62585;49.706;18.216;2023-05-07T09:30:32;0.40;;;0.40;;
74223;SDS011;62585;49.706;18.216;2023-05-07T09:32:59;0.05;;;0.05;;
74223;SDS011;62585;49.706;18.216;2023-05-07T09:35:25;0.52;;;0.52;;
74223;SDS011;62585;49.706;18.216;2023-05-07T09:37:55;0.30;;;0.30;;
74223;SDS011;62585;49.706;18.216;2023-05-07T09:40:25;0.00;;;0.00;;
74223;SDS011;62585;49.706;18.216;2023-05-07T09:42:53;0.00;;;0.00;;
74223;SDS011;62585;49.706;18.216;2023-05-07T09:47:50;0.00;;;0.00;;
74223;SDS011;62585;49.706;18.216;2023-05-07T09:50:21;0.03;;;0.03;;
74223;SDS011;62585;49.706;18.216;2023-05-07T09:52:51;0.03;;;0.03;;
74223;SDS011;62585;49.706;18.216;2023-05-07T09:55:17;1.45;;;1.38;;
74223;SDS011;62585;49.706;18.216;2023-05-07T09:57:43;0.30;;;0.30;;
74223;SDS011;62585;49.706;18.216;2023-05-07T10:00:10;0.10;;;0.10;;
74223;SDS011;62585;49.706;18.216;2023-05-07T10:05:12;1.08;;;1.08;;
74223;SDS011;62585;49.706;18.216;2023-05-07T10:07:39;0.00;;;0.00;;
74223;SDS011;62585;49.706;18.216;2023-05-07T10:10:06;0.00;;;0.00;;
74223;SDS011;62585;49.706;18.216;2023-05-07T10:12:32;0.03;;;0.03;;
74223;SDS011;62585;49.706;18.216;2023-05-07T10:15:07;0.20;;;0.20;;
74223;SDS011;62585;49.706;18.216;2023-05-07T10:17:35;0.00;;;0.00;;
74223;SDS011;62585;49.706;18.216;2023-05-07T10:20:05;1.15;;;1.15;;
74223;SDS011;62585;49.706;18.216;2023-05-07T10:22:47;1.55;;;1.30;;
74223;SDS011;62585;49.706;18.216;2023-05-07T10:25:16;0.30;;;0.25;;
74223;SDS011;62585;49.706;18.216;2023-05-07T10:27:44;0.47;;;0.47;;
74223;SDS011;62585;49.706;18.216;2023-05-07T10:33:00;2.58;;;1.10;;
74223;SDS011;62585;49.706;18.216;2023-05-07T10:35:31;3.00;;;1.38;;
74223;SDS011;62585;49.706;18.216;2023-05-07T10:38:10;0.98;;;0.57;;
74223;SDS011;62585;49.706;18.216;2023-05-07T10:40:36;2.60;;;1.50;;
74223;SDS011;62585;49.706;18.216;2023-05-07T10:43:03;0.13;;;0.13;;
74223;SDS011;62585;49.706;18.216;2023-05-07T10:45:32;0.00;;;0.00;;
74223;SDS011;62585;49.706;18.216;2023-05-07T10:48:09;0.00;;;0.00;;
74223;SDS011;62585;49.706;18.216;2023-05-07T10:50:36;0.10;;;0.10;;
74223;SDS011;62585;49.706;18.216;2023-05-07T10:58:22;0.20;;;0.20;;
74223;SDS011;62585;49.706;18.216;2023-05-07T11:00:54;0.03;;;0.03;;
74223;SDS011;62585;49.706;18.216;2023-05-07T11:03:22;0.00;;;0.00;;
74223;SDS011;62585;49.706;18.216;2023-05-07T11:05:47;1.35;;;1.30;;
74223;SDS011;62585;49.706;18.216;2023-05-07T11:14:10;0.75;;;0.75;;
74223;SDS011;62585;49.706;18.216;2023-05-07T11:16:36;0.38;;;0.38;;
74223;SDS011;62585;49.706;18.216;2023-05-07T11:19:03;0.00;;;0.00;;
74223;SDS011;62585;49.706;18.216;2023-05-07T11:21:38;0.30;;;0.20;;
74223;SDS011;62585;49.706;18.216;2023-05-07T11:24:05;0.30;;;0.30;;
74223;SDS011;62585;49.706;18.216;2023-05-07T11:26:42;0.15;;;0.15;;
74223;SDS011;62585;49.706;18.216;2023-05-07T11:29:10;1.23;;;1.08;;
74223;SDS011;62585;49.706;18.216;2023-05-07T11:31:37;3.20;;;1.83;;
74223;SDS011;62585;49.706;18.216;2023-05-07T11:34:03;3.67;;;1.33;;
74223;SDS011;62585;49.706;18.216;2023-05-07T11:36:30;0.00;;;0.00;;
74223;SDS011;62585;49.706;18.216;2023-05-07T11:38:57;0.00;;;0.00;;
74223;SDS011;62585;49.706;18.216;2023-05-07T11:41:32;0.05;;;0.05;;
74223;SDS011;62585;49.706;18.216;2023-05-07T11:43:59;0.20;;;0.20;;
74223;SDS011;62585;49.706;18.216;2023-05-07T11:46:25;0.90;;;0.60;;
74223;SDS011;62585;49.706;18.216;2023-05-07T11:48:52;0.00;;;0.00;;
74223;SDS011;62585;49.706;18.216;2023-05-07T11:51:19;0.80;;;0.80;;
74223;SDS011;62585;49.706;18.216;2023-05-07T11:53:46;0.00;;;0.00;;
74223;SDS011;62585;49.706;18.216;2023-05-07T11:56:13;0.30;;;0.30;;
74223;SDS011;62585;49.706;18.216;2023-05-07T11:58:40;3.15;;;1.70;;
74223;SDS011;62585;49.706;18.216;2023-05-07T12:01:07;0.80;;;0.80;;
74223;SDS011;62585;49.706;18.216;2023-05-07T12:03:40;0.00;;;0.00;;
74223;SDS011;62585;49.706;18.216;2023-05-07T12:06:07;5.15;;;2.25;;
74223;SDS011;62585;49.706;18.216;2023-05-07T12:08:36;0.05;;;0.05;;
74223;SDS011;62585;49.706;18.216;2023-05-07T12:11:03;0.00;;;0.00;;
74223;SDS011;62585;49.706;18.216;2023-05-07T12:13:32;0.00;;;0.00;;
74223;SDS011;62585;49.706;18.216;2023-05-07T12:15:58;0.00;;;0.00;;
74223;SDS011;62585;49.706;18.216;2023-05-07T12:18:24;0.20;;;0.20;;
74223;SDS011;62585;49.706;18.216;2023-05-07T12:20:50;0.73;;;0.73;;
74223;SDS011;62585;49.706;18.216;2023-05-07T12:23:17;0.00;;;0.00;;
74223;SDS011;62585;49.706;18.216;2023-05-07T12:25:43;0.65;;;0.65;;
74223;SDS011;62585;49.706;18.216;2023-05-07T12:28:13;1.67;;;0.90;;
74223;SDS011;62585;49.706;18.216;2023-05-07T12:30:40;0.45;;;0.45;;
74223;SDS011;62585;49.706;18.216;2023-05-07T12:33:08;2.92;;;1.95;;
74223;SDS011;62585;49.706;18.216;2023-05-07T12:35:38;3.38;;;2.00;;
74223;SDS011;62585;49.706;18.216;2023-05-07T12:38:12;0.00;;;0.00;;
74223;SDS011;62585;49.706;18.216;2023-05-07T12:40:43;9.30;;;2.65;;
74223;SDS011;62585;49.706;18.216;2023-05-07T12:43:17;0.00;;;0.00;;
74223;SDS011;62585;49.706;18.216;2023-05-07T12:45:47;2.25;;;2.13;;
74223;SDS011;62585;49.706;18.216;2023-05-07T12:48:14;0.15;;;0.15;;
74223;SDS011;62585;49.706;18.216;2023-05-07T12:50:40;1.85;;;1.75;;
74223;SDS011;62585;49.706;18.216;2023-05-07T12:53:07;0.63;;;0.47;;
74223;SDS011;62585;49.706;18.216;2023-05-07T12:58:08;0.00;;;0.00;;
74223;SDS011;62585;49.706;18.216;2023-05-07T13:00:39;0.17;;;0.17;;
74223;SDS011;62585;49.706;18.216;2023-05-07T13:03:05;3.25;;;1.60;;
74223;SDS011;62585;49.706;18.216;2023-05-07T13:05:31;4.75;;;3.33;;
74223;SDS011;62585;49.706;18.216;2023-05-07T13:07:57;4.70;;;2.30;;
74223;SDS011;62585;49.706;18.216;2023-05-07T13:10:23;0.65;;;0.65;;
74223;SDS011;62585;49.706;18.216;2023-05-07T13:12:50;1.45;;;1.15;;
74223;SDS011;62585;49.706;18.216;2023-05-07T13:15:16;0.77;;;0.77;;
74223;SDS011;62585;49.706;18.216;2023-05-07T13:17:43;2.53;;;2.40;;
74223;SDS011;62585;49.706;18.216;2023-05-07T13:20:09;0.10;;;0.10;;
74223;SDS011;62585;49.706;18.216;2023-05-07T13:22:36;0.93;;;0.88;;
74223;SDS011;62585;49.706;18.216;2023-05-07T13:25:02;1.30;;;1.23;;
74223;SDS011;62585;49.706;18.216;2023-05-07T13:27:28;0.77;;;0.77;;
74223;SDS011;62585;49.706;18.216;2023-05-07T13:29:56;2.80;;;2.30;;
74223;SDS011;62585;49.706;18.216;2023-05-07T13:32:22;1.40;;;1.30;;
74223;SDS011;62585;49.706;18.216;2023-05-07T13:34:48;0.88;;;0.88;;
74223;SDS011;62585;49.706;18.216;2023-05-07T13:37:14;0.65;;;0.57;;
74223;SDS011;62585;49.706;18.216;2023-05-07T13:39:39;0.00;;;0.00;;
74223;SDS011;62585;49.706;18.216;2023-05-07T13:42:06;6.75;;;2.22;;
74223;SDS011;62585;49.706;18.216;2023-05-07T13:44:32;2.10;;;1.55;;
74223;SDS011;62585;49.706;18.216;2023-05-07T13:46:58;7.53;;;4.15;;
74223;SDS011;62585;49.706;18.216;2023-05-07T13:49:24;1.95;;;1.75;;
74223;SDS011;62585;49.706;18.216;2023-05-07T13:51:50;3.13;;;2.78;;
74223;SDS011;62585;49.706;18.216;2023-05-07T13:54:15;0.95;;;0.95;;
74223;SDS011;62585;49.706;18.216;2023-05-07T13:56:41;2.22;;;2.03;;
74223;SDS011;62585;49.706;18.216;2023-05-07T13:59:07;0.00;;;0.00;;
74223;SDS011;62585;49.706;18.216;2023-05-07T14:01:33;2.15;;;0.82;;
74223;SDS011;62585;49.706;18.216;2023-05-07T14:03:59;1.20;;;1.05;;
74223;SDS011;62585;49.706;18.216;2023-05-07T14:06:25;2.88;;;1.65;;
74223;SDS011;62585;49.706;18.216;2023-05-07T14:08:51;1.00;;;0.85;;
74223;SDS011;62585;49.706;18.216;2023-05-07T14:11:17;0.00;;;0.00;;
74223;SDS011;62585;49.706;18.216;2023-05-07T14:13:43;0.10;;;0.10;;
74223;SDS011;62585;49.706;18.216;2023-05-07T14:16:08;1.45;;;0.98;;
74223;SDS011;62585;49.706;18.216;2023-05-07T14:18:34;1.55;;;1.17;;
74223;SDS011;62585;49.706;18.216;2023-05-07T14:21:02;0.10;;;0.10;;
74223;SDS011;62585;49.706;18.216;2023-05-07T14:23:28;0.82;;;0.80;;
74223;SDS011;62585;49.706;18.216;2023-05-07T14:25:54;1.00;;;0.63;;
74223;SDS011;62585;49.706;18.216;2023-05-07T14:28:19;3.83;;;3.45;;
74223;SDS011;62585;49.706;18.216;2023-05-07T14:30:46;1.30;;;1.23;;
74223;SDS011;62585;49.706;18.216;2023-05-07T14:33:12;0.10;;;0.10;;
74223;SDS011;62585;49.706;18.216;2023-05-07T14:35:37;2.92;;;2.55;;
74223;SDS011;62585;49.706;18.216;2023-05-07T14:38:03;0.25;;;0.25;;
74223;SDS011;62585;49.706;18.216;2023-05-07T14:40:29;0.52;;;0.52;;
74223;SDS011;62585;49.706;18.216;2023-05-07T14:42:55;2.60;;;1.88;;
74223;SDS011;62585;49.706;18.216;2023-05-07T14:45:22;1.00;;;1.00;;
74223;SDS011;62585;49.706;18.216;2023-05-07T14:47:48;2.17;;;1.75;;
74223;SDS011;62585;49.706;18.216;2023-05-07T14:50:14;2.88;;;1.25;;
74223;SDS011;62585;49.706;18.216;2023-05-07T14:52:39;1.02;;;1.02;;
74223;SDS011;62585;49.706;18.216;2023-05-07T14:55:05;0.00;;;0.00;;
74223;SDS011;62585;49.706;18.216;2023-05-07T14:57:31;3.90;;;3.65;;